Time;durP1;ratioP1;P1;durP2;ratioP2;P2;SDS_P1;SDS_P2;PMS_P1;PMS_P2;Temp;Humidity;BMP_temperature;BMP_pressure;BME280_temperature;BME280_humidity;BME280_pressure;Samples;Min_cycle;Max_cycle;Signal;HPM_P1;HPM_P2
2023/03/28 00:00:42;;;;;;;12.15;5.10;;;0.20;99.90;;;;;;5027128;28;20026;-72
2023/03/28 00:03:08;;;;;;;12.00;5.22;;;0.20;99.90;;;;;;5029696;28;20033;-72
2023/03/28 00:05:34;;;;;;;16.90;5.55;;;0.10;99.90;;;;;;5022147;28;20127;-72
2023/03/28 00:07:59;;;;;;;15.02;5.28;;;0.10;99.90;;;;;;5025174;28;21853;-71
2023/03/28 00:10:26;;;;;;;12.52;5.10;;;0.10;99.90;;;;;;5032346;28;20467;-72
2023/03/28 00:12:52;;;;;;;11.63;5.03;;;0.10;99.90;;;;;;5030158;28;20160;-72
2023/03/28 00:15:18;;;;;;;16.02;5.40;;;0.10;99.90;;;;;;5032524;28;20103;-71
2023/03/28 00:17:44;;;;;;;12.68;4.43;;;0.10;99.90;;;;;;5033283;28;20063;-72
2023/03/28 00:20:11;;;;;;;12.23;5.00;;;0.00;99.90;;;;;;5031451;28;20033;-72
2023/03/28 00:22:38;;;;;;;13.75;4.78;;;0.00;99.90;;;;;;5030135;28;20145;-68
2023/03/28 00:25:07;;;;;;;11.57;4.50;;;0.00;99.90;;;;;;5035725;28;20105;-70
2023/03/28 00:27:34;;;;;;;12.45;4.40;;;0.00;99.90;;;;;;5028346;28;20038;-72
2023/03/28 00:30:01;;;;;;;12.77;4.85;;;0.00;99.90;;;;;;5038686;28;20075;-71
2023/03/28 00:32:30;;;;;;;12.98;4.60;;;0.00;99.90;;;;;;5041873;28;20025;-71
2023/03/28 00:34:55;;;;;;;13.70;4.80;;;0.00;99.90;;;;;;5034996;28;20120;-72
2023/03/28 00:37:21;;;;;;;9.20;4.60;;;-0.10;99.90;;;;;;5042123;28;20108;-71
2023/03/28 00:39:50;;;;;;;10.88;4.45;;;-0.10;99.90;;;;;;5029538;28;20063;-72
2023/03/28 00:42:18;;;;;;;12.93;4.65;;;-0.10;99.90;;;;;;5032999;28;20037;-71
2023/03/28 00:44:50;;;;;;;20.20;4.95;;;-0.10;99.90;;;;;;5036445;28;20029;-72
2023/03/28 00:47:40;;;;;;;12.70;4.60;;;-0.10;99.90;;;;;;5041265;28;20033;-71
2023/03/28 00:50:20;;;;;;;11.30;4.53;;;-0.20;99.90;;;;;;5046017;28;20033;-68
2023/03/28 00:52:52;;;;;;;12.70;4.03;;;-0.20;99.90;;;;;;5038112;28;20350;-72
2023/03/28 00:55:24;;;;;;;11.73;4.40;;;-0.30;99.90;;;;;;5022773;28;20047;-70
2023/03/28 00:57:51;;;;;;;12.32;4.68;;;-0.30;99.90;;;;;;5031582;28;20038;-71
2023/03/28 01:00:17;;;;;;;10.63;4.03;;;-0.30;99.90;;;;;;5027343;28;20131;-73
2023/03/28 01:02:49;;;;;;;18.00;4.60;;;-0.30;99.90;;;;;;5048706;28;20044;-69
2023/03/28 01:05:16;;;;;;;14.07;4.53;;;-0.20;99.90;;;;;;5039436;28;20032;-71
2023/03/28 01:07:47;;;;;;;13.60;5.20;;;-0.20;99.90;;;;;;5039348;28;20025;-69
2023/03/28 01:10:13;;;;;;;11.30;4.43;;;-0.20;99.90;;;;;;5034183;28;20038;-73
2023/03/28 01:12:42;;;;;;;16.35;4.72;;;-0.20;99.90;;;;;;5039149;28;20053;-69
2023/03/28 01:15:09;;;;;;;14.68;4.10;;;-0.30;99.90;;;;;;5039425;28;20053;-70
2023/03/28 01:17:34;;;;;;;9.65;4.35;;;-0.30;99.90;;;;;;5046152;28;20411;-73
2023/03/28 01:20:21;;;;;;;13.38;4.63;;;-0.40;99.90;;;;;;5041149;28;20052;-69
2023/03/28 01:23:21;;;;;;;10.27;3.97;;;-0.40;99.90;;;;;;5025001;28;20463;-72
2023/03/28 01:26:14;;;;;;;11.95;4.35;;;-0.40;99.90;;;;;;5020984;28;20050;-72
2023/03/28 01:28:55;;;;;;;10.68;4.30;;;-0.40;99.90;;;;;;5029772;28;20478;-69
2023/03/28 01:31:45;;;;;;;13.40;4.30;;;-0.40;99.90;;;;;;5037870;28;20132;-72
2023/03/28 01:34:52;;;;;;;5.93;2.95;;;-0.40;99.90;;;;;;5031596;28;20115;-73
2023/03/28 01:37:42;;;;;;;10.95;4.38;;;-0.30;99.90;;;;;;5021989;28;20426;-72
2023/03/28 01:40:25;;;;;;;9.68;4.88;;;-0.40;99.90;;;;;;5036182;28;20036;-73
2023/03/28 01:42:54;;;;;;;14.73;4.85;;;-0.40;99.90;;;;;;5038054;28;20067;-73
2023/03/28 01:45:28;;;;;;;11.48;4.00;;;-0.40;99.90;;;;;;5038347;28;20028;-72
2023/03/28 01:48:32;;;;;;;14.75;4.60;;;-0.40;99.90;;;;;;5043622;28;20033;-72
2023/03/28 01:51:43;;;;;;;11.57;4.45;;;-0.40;99.90;;;;;;5036510;28;20049;-72
2023/03/28 01:54:32;;;;;;;15.30;4.47;;;-0.40;99.90;;;;;;5032164;28;20053;-71
2023/03/28 01:57:05;;;;;;;10.60;4.05;;;-0.40;99.90;;;;;;5031995;28;20029;-73
2023/03/28 01:59:59;;;;;;;10.77;4.47;;;-0.40;99.90;;;;;;5038014;28;20104;-72
2023/03/28 02:02:48;;;;;;;11.05;4.97;;;-0.50;99.90;;;;;;5035038;28;20037;-73
2023/03/28 02:05:18;;;;;;;8.25;4.03;;;-0.60;99.90;;;;;;5028672;28;20025;-72
2023/03/28 02:07:45;;;;;;;16.35;4.70;;;-0.50;99.90;;;;;;5029418;28;20029;-69
2023/03/28 02:10:14;;;;;;;14.82;5.15;;;-0.60;99.90;;;;;;5038297;28;20022;-73
2023/03/28 02:12:49;;;;;;;11.73;4.82;;;-0.70;99.90;;;;;;5041303;28;20087;-72
2023/03/28 02:15:18;;;;;;;13.20;4.90;;;-0.70;99.90;;;;;;5043589;28;20029;-71
2023/03/28 02:17:51;;;;;;;16.15;4.90;;;-0.60;99.90;;;;;;5030872;28;20132;-68
2023/03/28 02:20:21;;;;;;;15.15;5.10;;;-0.60;99.90;;;;;;5034819;28;20042;-69
2023/03/28 02:22:55;;;;;;;7.78;3.88;;;-0.50;99.90;;;;;;5026188;28;20041;-68
2023/03/28 02:25:21;;;;;;;16.45;4.93;;;-0.80;99.90;;;;;;5030958;28;20060;-72
2023/03/28 02:27:51;;;;;;;16.25;5.38;;;-0.80;99.90;;;;;;5032368;28;20359;-68
2023/03/28 02:30:18;;;;;;;14.90;4.97;;;-0.40;99.90;;;;;;5029521;28;20025;-72
2023/03/28 02:32:48;;;;;;;13.75;4.88;;;-0.40;99.90;;;;;;5032753;28;20029;-69
2023/03/28 02:35:14;;;;;;;12.98;5.07;;;-0.30;99.90;;;;;;5035632;28;20035;-72
2023/03/28 02:37:58;;;;;;;17.70;5.15;;;-0.60;99.90;;;;;;5033758;28;20045;-71
2023/03/28 02:40:51;;;;;;;16.80;5.43;;;-0.50;99.90;;;;;;5040522;28;20100;-70
2023/03/28 02:43:35;;;;;;;13.50;4.88;;;-0.40;99.90;;;;;;5030501;28;20489;-73
2023/03/28 02:46:08;;;;;;;17.63;5.80;;;-0.60;99.90;;;;;;5035657;28;20029;-73
2023/03/28 02:49:09;;;;;;;12.20;5.32;;;-0.40;99.90;;;;;;5035036;28;20066;-73
2023/03/28 02:52:00;;;;;;;16.75;5.68;;;-0.90;99.90;;;;;;5033595;28;20052;-71
2023/03/28 02:55:00;;;;;;;12.63;5.30;;;-1.00;99.90;;;;;;5019011;28;21740;-74
2023/03/28 02:57:31;;;;;;;;;;;-0.50;99.90;;;;;;5021093;28;20477;-75
2023/03/28 03:00:04;;;;;;;12.88;5.30;;;-1.00;99.90;;;;;;5043123;28;19916;-75
2023/03/28 03:02:32;;;;;;;13.65;5.38;;;-0.60;99.90;;;;;;5040646;28;20025;-73
2023/03/28 03:05:00;;;;;;;15.38;5.57;;;-0.80;99.90;;;;;;5046282;28;20029;-73
2023/03/28 03:07:27;;;;;;;19.90;5.85;;;-0.80;99.90;;;;;;5032102;28;20029;-75
2023/03/28 03:09:53;;;;;;;15.55;6.00;;;-0.80;99.90;;;;;;5043774;28;20490;-74
2023/03/28 03:12:22;;;;;;;20.90;6.10;;;-0.80;99.90;;;;;;5043536;28;20036;-75
2023/03/28 03:14:49;;;;;;;16.38;5.80;;;-0.80;99.90;;;;;;5042495;28;20036;-70
2023/03/28 03:17:19;;;;;;;16.63;5.75;;;-0.70;99.90;;;;;;5047835;28;20075;-74
2023/03/28 03:19:45;;;;;;;12.63;5.63;;;-0.70;99.90;;;;;;5035434;28;20462;-76
2023/03/28 03:22:11;;;;;;;12.45;4.97;;;-0.70;99.90;;;;;;5027504;28;20311;-75
2023/03/28 03:24:38;;;;;;;15.20;5.57;;;-0.70;99.90;;;;;;5041655;28;20021;-75
2023/03/28 03:27:03;;;;;;;17.42;5.18;;;-0.60;99.90;;;;;;5046604;28;20460;-70
2023/03/28 03:29:29;;;;;;;15.95;5.78;;;-0.70;99.90;;;;;;5042642;28;20048;-73
2023/03/28 03:31:55;;;;;;;16.48;5.80;;;-0.80;99.90;;;;;;5039994;28;20032;-75
2023/03/28 03:34:20;;;;;;;14.70;5.70;;;-0.80;99.90;;;;;;5036922;28;20033;-75
2023/03/28 03:36:48;;;;;;;15.15;5.57;;;-0.80;99.90;;;;;;5041529;28;20025;-75
2023/03/28 03:39:14;;;;;;;16.13;6.50;;;-0.70;99.90;;;;;;5035703;28;20029;-74
2023/03/28 03:41:40;;;;;;;19.92;5.78;;;-0.70;99.90;;;;;;5029186;28;20037;-75
2023/03/28 03:44:06;;;;;;;13.85;5.63;;;-0.80;99.90;;;;;;5035590;28;20038;-74
2023/03/28 03:46:31;;;;;;;16.17;5.43;;;-0.70;99.90;;;;;;5037907;28;20017;-74
2023/03/28 03:48:57;;;;;;;14.90;5.35;;;-0.80;99.90;;;;;;5027898;28;20104;-75
2023/03/28 03:51:23;;;;;;;11.18;5.38;;;-0.80;99.90;;;;;;5036346;28;20043;-75
2023/03/28 03:53:49;;;;;;;19.60;5.53;;;-0.80;99.90;;;;;;5042842;28;20768;-71
2023/03/28 03:56:15;;;;;;;10.65;5.05;;;-0.80;99.90;;;;;;5038779;28;20039;-76
2023/03/28 03:58:41;;;;;;;13.93;5.45;;;-0.80;99.90;;;;;;5029241;28;20037;-75
2023/03/28 04:01:12;;;;;;;13.65;5.25;;;-0.80;99.90;;;;;;5035341;28;20116;-75
2023/03/28 04:03:39;;;;;;;14.65;5.55;;;-0.80;99.90;;;;;;5029844;28;20040;-75
2023/03/28 04:06:05;;;;;;;17.85;5.30;;;-0.80;99.90;;;;;;5032949;28;20036;-75
2023/03/28 04:08:31;;;;;;;12.95;5.05;;;-0.90;99.90;;;;;;5036658;28;20038;-74
2023/03/28 04:10:56;;;;;;;15.43;5.15;;;-0.90;99.90;;;;;;5039879;28;20025;-74
2023/03/28 04:13:22;;;;;;;15.35;5.20;;;-1.00;99.90;;;;;;5033924;28;20041;-75
2023/03/28 04:15:48;;;;;;;17.88;5.13;;;-1.00;99.90;;;;;;5028771;28;20136;-75
2023/03/28 04:18:16;;;;;;;16.75;5.53;;;-1.00;99.90;;;;;;5032702;28;20290;-69
2023/03/28 04:20:45;;;;;;;13.73;4.95;;;-1.00;99.90;;;;;;5034946;28;20045;-74
2023/03/28 04:23:11;;;;;;;17.58;5.20;;;-1.10;99.90;;;;;;5042529;28;20037;-75
2023/03/28 04:25:40;;;;;;;10.85;4.97;;;-1.10;99.90;;;;;;5024118;28;20052;-75
2023/03/28 04:28:08;;;;;;;14.27;5.88;;;-1.10;99.90;;;;;;5028141;28;20507;-75
2023/03/28 04:30:34;;;;;;;12.43;5.05;;;-1.10;99.90;;;;;;5028439;28;20048;-72
2023/03/28 04:33:00;;;;;;;16.38;6.53;;;-1.00;99.90;;;;;;5026282;28;20041;-73
2023/03/28 04:35:28;;;;;;;12.60;5.50;;;-1.00;99.90;;;;;;5038273;28;20104;-74
2023/03/28 04:37:56;;;;;;;14.30;5.47;;;-1.00;99.90;;;;;;5038113;28;20037;-69
2023/03/28 04:40:23;;;;;;;15.77;5.68;;;-1.00;99.90;;;;;;5030244;28;20018;-75
2023/03/28 04:42:49;;;;;;;16.23;5.45;;;-1.00;99.90;;;;;;5037381;28;20037;-74
2023/03/28 04:45:15;;;;;;;17.25;5.82;;;-1.00;99.90;;;;;;5046171;28;20021;-75
2023/03/28 04:47:41;;;;;;;16.45;5.60;;;-1.00;99.90;;;;;;5038572;28;20040;-75
2023/03/28 04:50:08;;;;;;;15.75;5.72;;;-1.00;99.90;;;;;;5037458;28;20037;-75
2023/03/28 04:52:35;;;;;;;15.25;5.90;;;-1.00;99.90;;;;;;5038175;28;20132;-73
2023/03/28 04:55:00;;;;;;;14.65;5.82;;;-1.00;99.90;;;;;;5037714;28;20033;-75
2023/03/28 04:57:26;;;;;;;19.85;6.10;;;-1.00;99.90;;;;;;5028889;28;20029;-75
2023/03/28 04:59:52;;;;;;;12.75;5.22;;;-1.10;99.90;;;;;;5036212;28;20462;-71
2023/03/28 05:02:17;;;;;;;15.20;5.90;;;-1.10;99.90;;;;;;5031965;28;20470;-74
2023/03/28 05:04:43;;;;;;;12.90;5.75;;;-1.20;99.90;;;;;;5031353;28;20102;-74
2023/03/28 05:07:09;;;;;;;16.45;6.18;;;-1.20;99.90;;;;;;5023465;28;20038;-74
2023/03/28 05:09:35;;;;;;;20.25;6.40;;;-1.10;99.90;;;;;;5034921;28;20091;-74
2023/03/28 05:12:01;;;;;;;16.73;6.25;;;-1.10;99.90;;;;;;5032210;28;20025;-75
2023/03/28 05:14:26;;;;;;;17.83;5.90;;;-1.10;99.90;;;;;;5038961;28;20029;-74
2023/03/28 05:16:52;;;;;;;16.90;6.38;;;-1.10;99.90;;;;;;5030140;28;20028;-74
2023/03/28 05:19:19;;;;;;;14.13;6.10;;;-1.20;99.90;;;;;;5029519;28;20471;-73
2023/03/28 05:21:45;;;;;;;17.88;6.50;;;-1.20;99.90;;;;;;5036848;28;20115;-74
2023/03/28 05:24:11;;;;;;;13.63;5.78;;;-1.20;99.90;;;;;;5032699;28;20029;-73
2023/03/28 05:26:36;;;;;;;14.68;6.00;;;-1.20;99.90;;;;;;5031690;28;20025;-73
2023/03/28 05:29:02;;;;;;;12.80;5.90;;;-1.20;99.90;;;;;;5036224;28;20204;-73
2023/03/28 05:31:29;;;;;;;16.17;5.65;;;-1.20;99.90;;;;;;5035609;28;20465;-74
2023/03/28 05:33:56;;;;;;;19.15;6.03;;;-1.10;99.90;;;;;;5036064;28;20045;-64
2023/03/28 05:36:22;;;;;;;12.80;5.78;;;-1.10;99.90;;;;;;5038209;28;20055;-68
2023/03/28 05:38:48;;;;;;;14.00;5.78;;;-1.10;99.90;;;;;;5035075;28;20405;-68
2023/03/28 05:41:14;;;;;;;15.75;5.70;;;-1.10;99.90;;;;;;5036133;28;20049;-66
2023/03/28 05:43:40;;;;;;;18.05;6.15;;;-1.20;99.90;;;;;;5033230;28;20037;-64
2023/03/28 05:46:06;;;;;;;20.08;7.50;;;-1.20;99.90;;;;;;5031133;28;20029;-67
2023/03/28 05:48:31;;;;;;;17.83;6.97;;;-1.20;99.90;;;;;;5038741;28;20574;-65
2023/03/28 05:50:57;;;;;;;25.38;7.95;;;-1.20;99.90;;;;;;5043949;28;20075;-62
2023/03/28 05:53:22;;;;;;;18.73;7.38;;;-1.20;99.90;;;;;;5037079;28;20049;-63
2023/03/28 05:55:49;;;;;;;20.35;7.45;;;-1.20;99.90;;;;;;5038733;28;20167;-66
2023/03/28 05:58:15;;;;;;;21.70;7.68;;;-1.20;99.90;;;;;;5036453;28;20028;-65
2023/03/28 06:00:41;;;;;;;23.50;8.13;;;-1.10;99.90;;;;;;5034994;28;20119;-67
2023/03/28 06:03:08;;;;;;;18.30;7.10;;;-1.10;99.90;;;;;;5045121;28;20389;-67
2023/03/28 06:05:34;;;;;;;19.17;7.70;;;-1.00;99.90;;;;;;5031724;28;20471;-67
2023/03/28 06:08:00;;;;;;;22.08;7.03;;;-1.00;99.90;;;;;;5037958;28;20022;-62
2023/03/28 06:10:26;;;;;;;18.15;6.80;;;-0.80;99.90;;;;;;5046652;28;20021;-67
2023/03/28 06:12:52;;;;;;;23.30;8.00;;;-0.80;99.90;;;;;;5031914;28;20335;-67
2023/03/28 06:15:17;;;;;;;19.88;7.35;;;-0.80;99.90;;;;;;5042419;28;20116;-66
2023/03/28 06:17:43;;;;;;;22.25;8.38;;;-0.70;99.90;;;;;;5038396;28;20037;-68
2023/03/28 06:20:09;;;;;;;25.65;7.95;;;-0.60;99.90;;;;;;5032399;28;20025;-67
2023/03/28 06:22:37;;;;;;;20.83;7.82;;;-0.50;99.90;;;;;;5038492;28;20107;-67
2023/03/28 06:25:04;;;;;;;23.60;7.72;;;-0.50;99.90;;;;;;5029789;28;20044;-65
2023/03/28 06:27:31;;;;;;;21.00;7.57;;;-0.40;99.90;;;;;;5028997;28;20029;-68
2023/03/28 06:29:57;;;;;;;22.13;8.23;;;-0.30;99.90;;;;;;5040928;28;20442;-68
2023/03/28 06:32:22;;;;;;;22.80;8.75;;;-0.30;99.90;;;;;;5034438;28;20037;-66
2023/03/28 06:34:48;;;;;;;26.27;8.70;;;-0.20;99.90;;;;;;5030697;28;20482;-67
2023/03/28 06:37:14;;;;;;;26.80;8.77;;;-0.20;99.90;;;;;;5042785;28;20025;-67
2023/03/28 06:39:40;;;;;;;24.73;9.10;;;-0.10;99.90;;;;;;5049412;28;20151;-66
2023/03/28 06:42:06;;;;;;;20.25;8.02;;;-0.10;99.90;;;;;;5027443;28;20156;-66
2023/03/28 06:44:32;;;;;;;23.13;8.18;;;-0.10;99.90;;;;;;5043897;28;20127;-68
2023/03/28 06:46:57;;;;;;;21.90;8.98;;;0.00;99.90;;;;;;5043135;28;20034;-67
2023/03/28 06:49:23;;;;;;;22.52;8.52;;;0.00;99.90;;;;;;5036100;28;20095;-68
2023/03/28 06:51:49;;;;;;;20.08;8.68;;;0.10;99.90;;;;;;5033199;28;20166;-68
2023/03/28 06:54:14;;;;;;;24.83;8.40;;;0.20;99.90;;;;;;5044459;28;20028;-69
2023/03/28 06:56:40;;;;;;;24.60;8.60;;;0.30;99.90;;;;;;5029741;28;20034;-68
2023/03/28 06:59:06;;;;;;;18.98;7.97;;;0.30;99.90;;;;;;5047293;28;20482;-69
2023/03/28 07:01:31;;;;;;;22.65;7.88;;;0.40;99.90;;;;;;5041580;28;20029;-67
2023/03/28 07:03:58;;;;;;;21.95;7.85;;;0.50;99.90;;;;;;5030116;28;20097;-69
2023/03/28 07:06:26;;;;;;;19.98;8.10;;;0.60;99.90;;;;;;5022763;28;20040;-67
2023/03/28 07:08:52;;;;;;;24.45;8.32;;;0.60;99.90;;;;;;5023876;28;20800;-69
2023/03/28 07:11:18;;;;;;;17.90;8.07;;;0.70;99.90;;;;;;5022319;28;20033;-67
2023/03/28 07:13:43;;;;;;;25.17;8.35;;;0.90;99.90;;;;;;5020993;28;20095;-67
2023/03/28 07:16:14;;;;;;;20.55;7.97;;;0.90;99.90;;;;;;5020215;28;20144;-67
2023/03/28 07:18:42;;;;;;;16.30;7.40;;;1.00;99.90;;;;;;5021081;28;20064;-69
2023/03/28 07:21:14;;;;;;;20.27;7.93;;;1.10;99.90;;;;;;5042809;28;20063;-67
2023/03/28 07:23:40;;;;;;;19.55;7.07;;;1.30;99.90;;;;;;5038175;28;20385;-69
2023/03/28 07:26:07;;;;;;;19.10;7.13;;;1.40;99.90;;;;;;5039112;28;20466;-70
2023/03/28 07:28:33;;;;;;;18.08;6.63;;;1.50;99.90;;;;;;5033438;28;20037;-68
2023/03/28 07:31:03;;;;;;;21.27;7.03;;;1.50;99.90;;;;;;5037869;28;20085;-67
2023/03/28 07:33:30;;;;;;;16.67;6.88;;;1.60;99.90;;;;;;5037947;28;20033;-67
2023/03/28 07:35:56;;;;;;;20.85;7.28;;;1.70;99.90;;;;;;5042722;28;20033;-68
2023/03/28 07:38:23;;;;;;;21.50;7.60;;;1.80;99.90;;;;;;5025402;28;20104;-69
2023/03/28 07:40:48;;;;;;;18.67;7.53;;;1.90;99.90;;;;;;5041743;28;20033;-69
2023/03/28 07:43:14;;;;;;;25.83;7.13;;;2.00;99.90;;;;;;5031184;28;20037;-68
2023/03/28 07:45:40;;;;;;;22.02;6.70;;;2.10;99.90;;;;;;5032403;28;20032;-70
2023/03/28 07:48:06;;;;;;;18.23;6.75;;;2.20;99.90;;;;;;5040453;28;20051;-63
2023/03/28 07:50:32;;;;;;;17.42;6.25;;;2.40;99.90;;;;;;5046487;28;20025;-70
2023/03/28 07:52:59;;;;;;;16.00;5.45;;;2.50;99.90;;;;;;5039989;28;20037;-69
2023/03/28 07:55:26;;;;;;;17.42;5.60;;;2.50;99.90;;;;;;5029862;28;20670;-69
2023/03/28 07:57:52;;;;;;;17.35;5.03;;;2.60;99.90;;;;;;5035839;28;20101;-69
2023/03/28 08:00:22;;;;;;;19.05;5.07;;;2.60;99.90;;;;;;5044287;28;20036;-67
2023/03/28 08:02:50;;;;;;;15.55;5.30;;;2.70;99.90;;;;;;5024416;28;20556;-70
2023/03/28 08:05:16;;;;;;;18.17;5.38;;;2.80;99.90;;;;;;5030961;28;20108;-68
2023/03/28 08:07:44;;;;;;;17.88;5.10;;;3.00;99.90;;;;;;5046864;28;20390;-69
2023/03/28 08:10:11;;;;;;;13.30;4.88;;;2.90;99.90;;;;;;5038143;28;20025;-70
2023/03/28 08:12:37;;;;;;;19.50;4.13;;;2.90;99.90;;;;;;5037129;28;20032;-70
2023/03/28 08:15:04;;;;;;;11.25;3.20;;;3.00;99.90;;;;;;5028904;28;20030;-69
2023/03/28 08:17:30;;;;;;;14.25;4.28;;;2.80;99.90;;;;;;5044143;28;20031;-68
2023/03/28 08:19:56;;;;;;;13.80;4.47;;;2.80;99.90;;;;;;5038417;28;20029;-70
2023/03/28 08:22:22;;;;;;;11.60;3.50;;;3.10;99.90;;;;;;5039642;28;20045;-69
2023/03/28 08:24:47;;;;;;;13.27;4.38;;;3.30;99.90;;;;;;5029982;28;20037;-68
2023/03/28 08:27:13;;;;;;;10.40;3.35;;;3.40;99.90;;;;;;5027050;28;20435;-70
2023/03/28 08:29:39;;;;;;;12.38;3.15;;;3.60;99.90;;;;;;5030085;28;20029;-69
2023/03/28 08:32:06;;;;;;;16.05;3.05;;;3.80;99.90;;;;;;5043739;28;20516;-64
2023/03/28 08:34:32;;;;;;;7.65;2.53;;;3.70;99.90;;;;;;5036051;28;20026;-69
2023/03/28 08:36:58;;;;;;;9.60;2.30;;;3.70;99.90;;;;;;5046694;28;20038;-68
2023/03/28 08:39:24;;;;;;;14.07;3.20;;;4.00;99.90;;;;;;5045882;28;20116;-69
2023/03/28 08:42:15;;;;;;;15.68;2.50;;;3.70;99.90;;;;;;5028648;28;20437;-70
2023/03/28 08:44:56;;;;;;;11.82;2.25;;;3.30;99.90;;;;;;5035604;28;20066;-71
2023/03/28 08:47:30;;;;;;;13.07;2.42;;;3.40;99.90;;;;;;5038596;28;20115;-69
2023/03/28 08:50:30;;;;;;;7.70;1.70;;;3.50;99.90;;;;;;5031425;28;20095;-67
2023/03/28 08:52:56;;;;;;;11.98;2.00;;;3.40;99.90;;;;;;5019915;28;20056;-70
2023/03/28 08:55:42;;;;;;;10.10;2.45;;;3.10;99.90;;;;;;5046667;28;20029;-70
2023/03/28 08:58:19;;;;;;;6.15;2.15;;;3.30;99.90;;;;;;5038301;28;20064;-64
2023/03/28 09:00:47;;;;;;;7.43;2.17;;;3.60;99.90;;;;;;5039444;28;20155;-69
2023/03/28 09:03:15;;;;;;;9.27;2.08;;;3.90;99.90;;;;;;5035746;28;20078;-67
2023/03/28 09:05:51;;;;;;;10.32;2.00;;;4.00;99.90;;;;;;5037585;28;20099;-70
2023/03/28 09:08:32;;;;;;;6.68;1.80;;;3.90;99.90;;;;;;5039073;28;20044;-69
2023/03/28 09:11:16;;;;;;;8.60;1.63;;;3.80;99.90;;;;;;5032221;28;20036;-69
2023/03/28 09:14:06;;;;;;;7.40;1.35;;;3.80;99.90;;;;;;5036934;28;20041;-68
2023/03/28 09:16:53;;;;;;;5.43;1.67;;;3.90;99.90;;;;;;5029273;28;20029;-70
2023/03/28 09:19:38;;;;;;;7.55;1.33;;;3.80;99.90;;;;;;5049030;28;20032;-68
2023/03/28 09:22:32;;;;;;;3.97;1.30;;;3.80;99.90;;;;;;5048024;28;20087;-69
2023/03/28 09:25:16;;;;;;;13.05;2.00;;;3.90;99.90;;;;;;5050664;28;20029;-69
2023/03/28 09:27:58;;;;;;;6.75;1.60;;;4.00;99.90;;;;;;5041844;28;20048;-69
2023/03/28 09:30:30;;;;;;;7.45;2.63;;;4.10;99.90;;;;;;5045502;28;20029;-69
2023/03/28 09:32:58;;;;;;;7.20;1.90;;;4.10;99.90;;;;;;5039103;28;20042;-70
2023/03/28 09:35:26;;;;;;;5.60;1.88;;;4.20;99.90;;;;;;5038648;28;20041;-68
2023/03/28 09:38:03;;;;;;;7.15;1.65;;;4.60;99.90;;;;;;5045461;28;20037;-70
2023/03/28 09:40:31;;;;;;;3.72;1.15;;;5.30;99.90;;;;;;5033738;28;20034;-69
2023/03/28 09:43:22;;;;;;;9.18;1.65;;;5.60;99.90;;;;;;5050530;28;20389;-70
2023/03/28 09:46:04;;;;;;;8.70;1.77;;;5.60;99.90;;;;;;5037121;28;20029;-69
2023/03/28 09:48:35;;;;;;;4.13;1.67;;;5.20;99.90;;;;;;5032508;28;20607;-70
2023/03/28 09:51:01;;;;;;;6.57;1.60;;;4.70;99.90;;;;;;5050429;28;20111;-69
2023/03/28 09:53:32;;;;;;;5.47;1.65;;;4.90;99.90;;;;;;5031942;28;20037;-70
2023/03/28 09:56:20;;;;;;;5.18;1.35;;;5.30;99.90;;;;;;5043378;28;20480;-69
2023/03/28 09:58:48;;;;;;;11.23;1.80;;;5.50;99.90;;;;;;5023693;28;20035;-69
2023/03/28 10:01:46;;;;;;;9.65;2.17;;;5.50;99.90;;;;;;5037582;28;20044;-64
2023/03/28 10:04:33;;;;;;;8.18;1.60;;;5.40;99.90;;;;;;5037168;28;20107;-63
2023/03/28 10:07:08;;;;;;;4.65;1.52;;;5.20;99.90;;;;;;5042169;28;20112;-68
2023/03/28 10:09:45;;;;;;;8.77;1.70;;;5.50;99.90;;;;;;5039011;28;20862;-69
2023/03/28 10:12:20;;;;;;;6.68;1.58;;;5.60;99.90;;;;;;5043518;28;20041;-64
2023/03/28 10:14:46;;;;;;;10.25;1.50;;;6.10;99.90;;;;;;5040702;28;20044;-69
2023/03/28 10:17:26;;;;;;;5.80;1.50;;;5.90;99.90;;;;;;5035031;28;20026;-63
2023/03/28 10:19:57;;;;;;;6.27;1.67;;;5.70;99.90;;;;;;5038603;28;20116;-69
2023/03/28 10:22:38;;;;;;;8.27;1.90;;;5.80;99.90;;;;;;5028926;28;21249;-67
2023/03/28 10:25:07;;;;;;;9.18;2.00;;;5.40;99.90;;;;;;5035343;28;20057;-67
2023/03/28 10:27:34;;;;;;;7.10;1.95;;;5.60;99.90;;;;;;5040564;28;20079;-68
2023/03/28 10:30:24;;;;;;;5.20;1.60;;;5.70;99.90;;;;;;5042016;28;20537;-69
2023/03/28 10:33:16;;;;;;;5.60;1.73;;;5.80;99.90;;;;;;5033200;28;20045;-70
2023/03/28 10:36:06;;;;;;;9.73;1.80;;;6.20;99.90;;;;;;5038775;28;20559;-69
2023/03/28 10:38:36;;;;;;;2.83;1.50;;;6.60;99.90;;;;;;5040821;28;20102;-69
2023/03/28 10:41:05;;;;;;;9.65;2.15;;;6.40;99.90;;;;;;5041535;28;20036;-69
2023/03/28 10:43:34;;;;;;;5.70;1.63;;;6.00;99.90;;;;;;5033265;28;20031;-69
2023/03/28 10:46:25;;;;;;;6.72;1.65;;;5.60;99.90;;;;;;5037891;28;20039;-68
2023/03/28 10:48:57;;;;;;;6.25;1.67;;;5.00;99.90;;;;;;5043795;28;20029;-70
2023/03/28 10:51:24;;;;;;;5.85;1.48;;;5.00;99.90;;;;;;5046651;28;20072;-70
2023/03/28 10:54:05;;;;;;;3.58;1.38;;;5.40;99.90;;;;;;5032799;28;20045;-69
2023/03/28 10:56:33;;;;;;;5.07;1.15;;;5.90;99.90;;;;;;5040549;28;20025;-69
2023/03/28 10:59:18;;;;;;;9.25;1.90;;;6.50;99.90;;;;;;5037916;28;20156;-69
2023/03/28 11:02:20;;;;;;;4.30;1.50;;;6.60;99.90;;;;;;5046225;28;20048;-68
2023/03/28 11:05:21;;;;;;;4.55;1.80;;;6.90;99.90;;;;;;5039787;28;20037;-69
2023/03/28 11:08:09;;;;;;;;;;;6.80;99.90;;;;;;5026196;28;20124;-69
2023/03/28 11:10:44;;;;;;;3.35;1.52;;;7.10;99.90;;;;;;5036383;28;20522;-69
2023/03/28 11:13:48;;;;;;;4.88;1.70;;;6.90;99.90;;;;;;5044395;28;20044;-68
2023/03/28 11:16:40;;;;;;;3.30;1.38;;;7.00;99.90;;;;;;5020408;28;20053;-65
2023/03/28 11:19:30;;;;;;;5.47;1.60;;;7.10;99.40;;;;;;5033781;28;20442;-69
2023/03/28 11:22:07;;;;;;;5.03;1.60;;;7.00;99.90;;;;;;5044358;28;20115;-69
2023/03/28 11:24:45;;;;;;;2.78;1.33;;;7.00;99.90;;;;;;5033297;28;20040;-68
2023/03/28 11:27:38;;;;;;;5.72;1.50;;;7.20;99.90;;;;;;5039709;28;20452;-70
2023/03/28 11:30:17;;;;;;;4.13;1.40;;;7.40;99.90;;;;;;5034985;28;20031;-68
2023/03/28 11:33:03;;;;;;;6.80;1.52;;;7.60;99.60;;;;;;5039504;28;20092;-67
2023/03/28 11:35:39;;;;;;;6.05;1.65;;;6.90;97.40;;;;;;5034963;28;20450;-68
2023/03/28 11:38:16;;;;;;;6.47;1.67;;;6.60;98.30;;;;;;5031843;28;20033;-69
2023/03/28 11:40:51;;;;;;;6.18;1.33;;;6.60;99.70;;;;;;5039562;28;20032;-69
2023/03/28 11:43:55;;;;;;;4.38;1.85;;;6.50;99.90;;;;;;5036926;28;20084;-63
2023/03/28 11:46:42;;;;;;;6.30;1.55;;;6.80;99.90;;;;;;5027777;28;20037;-69
2023/03/28 11:49:12;;;;;;;7.63;1.98;;;7.50;99.30;;;;;;5039938;28;20091;-67
2023/03/28 11:51:38;;;;;;;;;;;7.30;98.80;;;;;;5028599;28;20041;-69
2023/03/28 11:54:16;;;;;;;7.18;1.80;;;7.50;99.90;;;;;;5039822;28;20270;-67
2023/03/28 11:56:49;;;;;;;3.70;1.88;;;7.90;99.90;;;;;;5041630;28;20029;-69
2023/03/28 11:59:25;;;;;;;6.13;1.95;;;7.70;99.90;;;;;;5031217;28;20386;-69
2023/03/28 12:02:11;;;;;;;12.77;2.38;;;7.80;97.40;;;;;;5041185;28;20052;-70
2023/03/28 12:04:45;;;;;;;7.13;2.28;;;8.00;98.80;;;;;;5028186;28;20029;-69
2023/03/28 12:07:26;;;;;;;7.22;2.67;;;8.20;99.90;;;;;;5030366;28;20021;-69
2023/03/28 12:10:04;;;;;;;5.72;2.00;;;7.70;95.00;;;;;;5037271;28;20045;-68
2023/03/28 12:12:32;;;;;;;8.07;2.40;;;7.50;97.40;;;;;;5024099;28;20029;-69
2023/03/28 12:15:14;;;;;;;9.65;2.40;;;7.40;96.40;;;;;;5047987;28;20556;-69
2023/03/28 12:17:46;;;;;;;5.22;2.40;;;7.20;99.90;;;;;;5034341;28;20033;-68
2023/03/28 12:20:29;;;;;;;7.22;2.50;;;7.20;99.90;;;;;;5037724;28;20025;-70
2023/03/28 12:22:56;;;;;;;10.27;2.30;;;7.60;99.10;;;;;;5033094;28;20167;-69
2023/03/28 12:25:38;;;;;;;10.45;2.60;;;8.00;99.80;;;;;;5045253;28;20100;-63
2023/03/28 12:28:28;;;;;;;5.32;2.53;;;7.90;99.90;;;;;;5031646;28;20749;-68
2023/03/28 12:31:10;;;;;;;5.50;2.70;;;7.60;98.00;;;;;;5029678;28;20818;-67
2023/03/28 12:34:00;;;;;;;7.25;2.72;;;7.20;97.10;;;;;;5027613;28;20449;-69
2023/03/28 12:36:37;;;;;;;7.78;2.28;;;6.70;97.20;;;;;;5045786;28;20059;-69
2023/03/28 12:39:21;;;;;;;8.30;3.22;;;6.80;98.50;;;;;;5040404;28;20037;-69
2023/03/28 12:41:47;;;;;;;7.18;2.47;;;7.20;98.70;;;;;;5033760;28;20034;-69
2023/03/28 12:44:16;;;;;;;8.13;2.83;;;7.30;96.30;;;;;;5048189;28;20452;-68
2023/03/28 12:46:49;;;;;;;12.55;3.70;;;7.80;97.90;;;;;;5031769;28;20029;-70
2023/03/28 12:49:33;;;;;;;10.32;3.03;;;8.20;99.90;;;;;;5031806;28;20029;-69
2023/03/28 12:52:05;;;;;;;5.30;2.67;;;7.80;96.20;;;;;;5042723;28;20041;-68
2023/03/28 12:54:51;;;;;;;11.55;2.85;;;7.50;96.40;;;;;;5040336;28;20466;-69
2023/03/28 12:57:39;;;;;;;13.57;2.90;;;7.20;98.30;;;;;;5048174;28;20110;-69
2023/03/28 13:00:15;;;;;;;9.48;2.78;;;7.10;97.50;;;;;;5031152;28;20029;-70
2023/03/28 13:02:56;;;;;;;10.18;3.20;;;7.30;98.40;;;;;;5039151;28;20584;-69
2023/03/28 13:05:47;;;;;;;9.50;3.17;;;7.40;97.30;;;;;;5040179;28;20037;-63
2023/03/28 13:08:47;;;;;;;6.82;3.03;;;7.70;97.30;;;;;;5050860;28;20111;-67
2023/03/28 13:11:27;;;;;;;7.07;2.85;;;7.80;97.30;;;;;;5004253;28;20041;-69
2023/03/28 13:13:57;;;;;;;8.68;2.95;;;7.90;96.80;;;;;;5039022;28;20139;-68